• Join FlightAware (Why Join?)
  • Login
  • US Flag 
04:49AM EDT


 

Airport Tracker/Info


-or-


 

Live Flight TrackerFlight Track Log ✈ N642FT ✈ 03-Apr-2014 ✈ KMLB - KMLB

Flight Track Log - Related Links

Times and Time Zones

All times are in EDT time to prevent confusion due to time zone crossing. See the N642FT flight status page for this flight to view local times or setup timezone preferences in your user account.

Time Position Orientation Groundspeed Altitude Reporting Facility
EDT Latitude Longitude Course Direction KTS MPH feet Rate Location/Type
03:36PM 28.1028 -80.6453 161° South  Level Estimated
03:37PM 28.1028 -80.6453 161° South  Level Estimated
03:38PM 28.1028 -80.6453 161° South  Level Estimated
03:39PM 28.1028 -80.6453 161° South  Level Estimated
03:40PM 28.1028 -80.6453 156° South  Level Estimated
03:41PM 28.1028 -80.6453 156° South  Level Estimated
03:42PM 28.1028 -80.6453 180° South  Level Estimated
03:43PM 28.1028 -80.6453 156° South  Level Estimated
03:44PM 28.1028 -80.6453 161° South  Level Estimated
03:45PM 28.1028 -80.6453 160° South  Level Estimated
03:46PM 28.1028 -80.6453 North  Level Estimated
03:47PM 28.1028 -80.6453 North  Level Estimated
03:48PM 28.1028 -80.6453 North  Level Estimated
03:49PM 28.1028 -80.6453 North  Level Estimated
03:50PM 28.1028 -80.6453 North  Level Estimated
03:51PM 28.1028 -80.6453 North  Level Estimated
03:52PM 28.1028 -80.6453 North  Level Estimated
03:53PM 28.1028 -80.6453 North  Level Estimated
03:54PM 28.1028 -80.6453 North  Level Estimated
03:55PM 28.1028 -80.6453 North  Level Estimated
03:56PM 28.1028 -80.6453 North  Level Estimated
03:57PM 28.1028 -80.6453 North  Level Estimated
03:58PM 28.1028 -80.6453 North  Level Estimated
03:59PM 28.1028 -80.6453 North  Level Estimated
04:00PM 28.1028 -80.6453 North  Level Estimated
04:01PM 28.1028 -80.6453 North  Level Estimated
04:02PM 28.1028 -80.6453 North  Level Estimated
04:03PM 28.1028 -80.6453 North  Level Estimated
04:04PM 28.1028 -80.6453 North  Level Estimated
04:05PM 28.1028 -80.6453 North  Level Estimated
04:06PM 28.1028 -80.6453 North  Level Estimated
04:06PM 28.1000 -80.6500 161° South 49 56 500  Level Orlando TRACON
04:07PM 28.1028 -80.6453 North  Level Estimated
04:07PM 28.1000 -80.6167 90° East 66 76 1,200  Level Orlando TRACON
04:08PM 28.1028 -80.6453 North  Level Estimated
04:08PM 28.1000 -80.6000 90° East 76 87 1,800  Level Orlando TRACON
04:09PM 28.1028 -80.6453 North  Level Estimated
04:09PM 28.1000 -80.5833 90° East 70 81 2,300  Level Orlando TRACON
04:10PM 28.1028 -80.6453 North  Level Estimated
04:10PM 28.0833 -80.6000 221° Southwest 77 89 2,800  Level Orlando TRACON
04:11PM 28.1028 -80.6453 North  Level Estimated
04:11PM 28.0833 -80.6167 270° West 81 93 3,400  Level Orlando TRACON
04:12PM 28.1028 -80.6453 North  Level Estimated
04:12PM 28.0833 -80.6500 270° West 81 93 3,800  Level Orlando TRACON
04:13PM 28.1028 -80.6453 161° South  Level Estimated
04:13PM 28.0833 -80.6833 270° West 106 122 4,100  Level Orlando TRACON
04:14PM 28.0833 -80.7167 270° West 119 137 4,100  Level Orlando TRACON
04:15PM 28.0833 -80.7500 270° West 112 129 4,100 -60 Level Orlando TRACON
04:16PM 28.0833 -80.7833 270° West 117 135 4,000 -60 Descending Orlando TRACON
04:17PM 28.0833 -80.8167 270° West 113 130 4,000  Level Orlando TRACON
04:18PM 28.0833 -80.8500 270° West 119 137 4,000  Level Orlando TRACON
04:19PM 28.1000 -80.8833 300° West 116 133 4,100  Climbing Orlando TRACON
04:20PM 28.1000 -80.9333 270° West 117 135 4,100 -60 Level Orlando TRACON
04:21PM 28.1000 -80.9667 270° West 117 135 4,000  Descending Orlando TRACON
04:22PM 28.1000 -81.0000 270° West 117 135 4,100  Climbing Orlando TRACON
04:23PM 28.1000 -81.0333 270° West 112 129 4,100  Level Orlando TRACON
04:24PM 28.1000 -81.0667 270° West 114 131 4,100  Level Orlando TRACON
04:25PM 28.1000 -81.1167 270° West 115 132 4,100  Level Orlando TRACON
04:26PM 28.1000 -81.1500 270° West 116 133 4,100  Level Orlando TRACON
04:27PM 28.1000 -81.1833 270° West 112 129 4,100  Level Orlando TRACON
04:28PM 28.1000 -81.2167 270° West 114 131 4,100 -60 Level Orlando TRACON
04:29PM 28.0833 -81.2500 240° Southwest 119 137 4,000 -60 Descending Orlando TRACON
04:30PM 28.0833 -81.2833 270° West 120 138 4,000  Level Orlando TRACON
04:31PM 28.0833 -81.3167 270° West 113 130 4,000  Level Orlando TRACON
04:32PM 28.0833 -81.3500 270° West 108 124 4,100  Climbing Orlando TRACON
04:33PM 28.0667 -81.3833 240° Southwest 108 124 4,000  Descending Orlando TRACON
04:34PM 28.0667 -81.4167 270° West 113 130 4,100  Climbing Orlando TRACON
04:35PM 28.0500 -81.4667 249° West 112 129 4,100  Level Orlando TRACON
04:36PM 28.0500 -81.4833 270° West 113 130 4,100  Level Orlando TRACON
04:37PM 28.0333 -81.5167 240° Southwest 114 131 4,100  Level Orlando TRACON
04:38PM 28.0333 -81.5500 270° West 116 133 4,200  Climbing Orlando TRACON
04:39PM 28.0333 -81.6000 270° West 117 135 4,100 -60 Descending Orlando TRACON
04:41PM 28.0333 -81.6500 270° West 112 129 4,100  Level Tampa TRACON
04:42PM 28.0167 -81.6833 240° Southwest 106 122 4,100  Level Tampa TRACON
04:43PM 28.0167 -81.7333 270° West 113 130 4,100  Level Tampa TRACON
04:44PM 28.0333 -81.7667 300° West 125 144 4,100  Level Tampa TRACON
04:45PM 28.0500 -81.8000 300° West 123 142 4,200 -60 Climbing Tampa TRACON
04:46PM 28.0667 -81.8333 300° West 125 144 4,000 -120 Descending Tampa TRACON
04:47PM 28.0833 -81.8667 300° West 126 145 4,000  Level Tampa TRACON
04:48PM 28.1000 -81.9000 300° West 121 139 4,100 60 Climbing Tampa TRACON
04:49PM 28.1167 -81.9333 300° West 120 138 4,200  Climbing Tampa TRACON
04:50PM 28.1167 -81.9667 270° West 117 135 4,100 -60 Descending Tampa TRACON
04:51PM 28.1167 -82.0167 270° West 117 135 4,100 -60 Level Tampa TRACON
04:52PM 28.1333 -82.0500 300° West 118 136 4,000 -480 Descending Tampa TRACON
04:53PM 28.1333 -82.0833 270° West 124 143 3,300 -480 Descending Tampa TRACON
04:54PM 28.1333 -82.1167 270° West 121 139 3,100 -120 Descending Tampa TRACON
04:55PM 28.1500 -82.1500 300° West 116 133 3,100  Level Tampa TRACON
04:56PM 28.1500 -82.2000 270° West 119 137 3,100  Level Tampa TRACON
04:57PM 28.1500 -82.2333 270° West 117 135 3,100  Level Tampa TRACON
04:58PM 28.1500 -82.2667 270° West 120 138 3,200  Climbing Tampa TRACON
04:59PM 28.1667 -82.3000 300° West 117 135 3,100 -60 Descending Tampa TRACON
05:00PM 28.1667 -82.3333 270° West 115 132 3,100  Level Tampa TRACON
05:01PM 28.1667 -82.3667 270° West 117 135 3,100 -60 Level Tampa TRACON
05:02PM 28.1667 -82.4000 270° West 115 132 3,000 -240 Descending Tampa TRACON
05:03PM 28.1667 -82.4500 270° West 125 144 2,700 -480 Descending Tampa TRACON
05:04PM 28.1667 -82.4833 270° West 125 144 2,100 -300 Descending Tampa TRACON
05:05PM 28.1500 -82.5167 240° Southwest 113 130 2,100  Level Tampa TRACON
05:06PM 28.1333 -82.5167 180° South 111 128 2,100  Level Tampa TRACON
05:07PM 28.1000 -82.5333 204° Southwest 109 125 2,200 -180 Climbing Tampa TRACON
05:08PM 28.0667 -82.5333 180° South 113 130 1,800 -720 Descending Tampa TRACON
05:09PM 28.0167 -82.5333 180° South 128 147 800 -780 Descending Tampa TRACON
05:10PM 27.9833 -82.5333 180° South 120 138 300 -240 Descending Tampa TRACON
05:11PM 27.9667 -82.5333 180° South 100 115 400 420 Climbing Tampa TRACON
05:12PM 27.9667 -82.5167 90° East 96 110 1,100 600 Climbing Tampa TRACON
05:13PM 27.9833 -82.4833 60° Northeast 94 108 1,700 300 Climbing Tampa TRACON
05:14PM 28.0000 -82.4500 60° Northeast 124 143 1,700  Level Tampa TRACON
05:15PM 28.0167 -82.4167 60° Northeast 124 143 1,800  Climbing Tampa TRACON
05:16PM 28.0500 -82.3833 41° Northeast 115 132 1,800 60 Level Tampa TRACON
05:17PM 28.0333 -82.3667 139° Southeast 104 120 2,000 420 Climbing Tampa TRACON
05:18PM 28.0167 -82.3333 120° Southeast 73 84 2,700 600 Climbing Tampa TRACON
05:19PM 28.0000 -82.3167 139° Southeast 77 89 3,200 540 Climbing Tampa TRACON
05:20PM 28.0000 -82.3000 90° East 77 89 3,800 420 Climbing Tampa TRACON
05:21PM 27.9833 -82.2667 120° Southeast 79 91 4,100 300 Climbing Tampa TRACON
05:22PM 27.9667 -82.2500 139° Southeast 98 113 4,500 420 Climbing Tampa TRACON
05:23PM 27.9500 -82.2333 139° Southeast 77 89 5,000 360 Climbing Tampa TRACON
05:24PM 27.9500 -82.2000 90° East 78 90 5,200 240 Climbing Tampa TRACON
05:25PM 27.9333 -82.1833 139° Southeast 95 109 5,500  Climbing Tampa TRACON
05:26PM 27.9167 -82.1500 119° Southeast 100 115 5,200 -240 Descending Tampa TRACON
05:27PM 27.9000 -82.1333 139° Southeast 106 122 5,100 -60 Descending Tampa TRACON
05:28PM 27.8833 -82.1000 119° Southeast 104 120 5,100  Level Tampa TRACON
05:29PM 27.8667 -82.0667 119° Southeast 102 117 5,100  Level Tampa TRACON
05:30PM 27.8500 -82.0500 139° Southeast 100 115 5,100  Level Tampa TRACON
05:31PM 27.8333 -82.0167 119° Southeast 104 120 5,100  Level Tampa TRACON
05:32PM 27.8211 -81.9864 115° Southeast 110 127 5,100  Level Miami Center
05:33PM 27.8033 -81.9553 123° Southeast 110 127 5,100  Level Miami Center
05:34PM 27.7856 -81.9286 127° Southeast 110 127 5,100  Level Miami Center
05:35PM 27.7697 -81.9019 124° Southeast 110 127 5,100  Level Miami Center
05:36PM 27.7542 -81.8686 118° Southeast 110 127 5,100  Level Miami Center
05:37PM 27.7364 -81.8397 125° Southeast 110 127 5,200  Climbing Miami Center
05:38PM 27.7208 -81.8108 121° Southeast 110 127 5,100 -60 Descending Miami Center
05:39PM 27.7092 -81.7869 119° Southeast 110 127 5,100  Level Miami Center
05:40PM 27.6956 -81.7558 116° Southeast 110 127 5,200  Climbing Miami Center
05:41PM 27.6797 -81.7269 122° Southeast 110 127 5,200  Level Miami Center
05:42PM 27.6642 -81.6936 118° Southeast 105 121 5,200 -60 Level Miami Center
05:43PM 27.6525 -81.6694 119° Southeast 105 121 5,100 -60 Descending Miami Center
05:44PM 27.6369 -81.6383 119° Southeast 105 121 5,100  Level Miami Center
05:45PM 27.6231 -81.6097 119° Southeast 105 121 5,100  Level Miami Center
05:46PM 27.6094 -81.5811 118° Southeast 105 121 5,100  Level Miami Center
05:47PM 27.5958 -81.5500 116° Southeast 105 121 5,200  Climbing Miami Center
05:48PM 27.5842 -81.5214 115° Southeast 105 121 5,100 -60 Descending Miami Center
05:49PM 27.5706 -81.4928 118° Southeast 99 114 5,100  Level Miami Center
05:50PM 27.5589 -81.4642 115° Southeast 99 114 5,200  Climbing Miami Center
05:51PM 27.5453 -81.4381 120° Southeast 99 114 5,100 -60 Descending Miami Center
05:52PM 27.5378 -81.4072 105° East 99 114 5,100  Level Miami Center
05:53PM 27.5367 -81.3767 92° East 94 108 5,100  Level Miami Center
05:54PM 27.5358 -81.3417 92° East 100 115 5,200  Climbing Miami Center
05:55PM 27.5347 -81.3089 92° East 100 115 5,100  Descending Miami Center
05:57PM 27.5303 -81.2431 96° East 105 121 5,200  Climbing Miami Center
05:58PM 27.5292 -81.2125 92° East 105 121 5,200 -60 Level Miami Center
05:59PM 27.5283 -81.1775 92° East 105 121 5,100  Descending Miami Center
06:00PM 27.5272 -81.1444 92° East 105 121 5,200  Climbing Miami Center
06:01PM 27.5239 -81.1094 96° East 105 121 5,200 -60 Level Miami Center
06:02PM 27.5228 -81.0811 93° East 105 121 5,100 -120 Descending Miami Center
06:03PM 27.5217 -81.0461 92° East 105 121 5,000 -300 Descending Miami Center
06:04PM 27.5206 -81.0086 92° East 105 121 4,500 -540 Descending Miami Center
06:05PM 27.5175 -80.9733 96° East 105 121 4,000 -540 Descending Miami Center
06:06PM 27.5144 -80.9358 95° East 110 127 3,500 -480 Descending Miami Center
06:07PM 27.5111 -80.8981 96° East 110 127 3,100 -300 Descending Miami Center
06:08PM 27.5103 -80.8631 92° East 110 127 3,000  Descending Miami Center
06:09PM 27.5092 -80.8278 92° East 115 132 3,100  Climbing Miami Center
06:10PM 27.5078 -80.7950 93° East 105 121 3,100  Level Miami Center
06:11PM 27.5067 -80.7600 92° East 105 121 3,200  Climbing Miami Center
06:12PM 27.5056 -80.7272 92° East 105 121 3,100  Descending Miami Center
06:13PM 27.5044 -80.6872 92° East 105 121 3,200  Climbing Miami Center
06:14PM 27.5014 -80.6497 95° East 105 121 3,200 -60 Level Miami Center
06:15PM 27.4981 -80.6169 97° East 105 121 3,100 -180 Descending Miami Center
06:16PM 27.4989 -80.5817 88° East 111 128 2,900 -420 Descending Miami Center
06:17PM 27.4978 -80.5394 92° East 116 133 2,300 -480 Descending Miami Center
06:18PM 27.4989 -80.5044 88° East 123 142 2,000 -300 Descending Miami Center
06:19PM 27.4975 -80.4669 92° East 123 142 1,700 -300 Descending Miami Center
06:20PM 27.5025 -80.4392 79° East 110 127 1,500 -480 Descending Miami Center
06:21PM 27.5011 -80.4108 93° East 91 105 800 -600 Descending Miami Center
06:22PM 27.5039 -80.3828 84° East 85 98 400 -300 Descending Miami Center
06:23PM 27.5022 -80.3619 95° East 80 92 300 120 Descending Miami Center
06:24PM 27.4858 -80.3567 164° South 110 127 700 480 Climbing Miami Center
06:25PM 27.4883 -80.3381 81° East 79 91 1,300 600 Climbing Miami Center
06:26PM 27.4908 -80.3147 83° East 66 76 2,000 600 Climbing Miami Center
06:27PM 27.4936 -80.2889 83° East 71 82 2,600 480 Climbing Miami Center
06:28PM 27.5025 -80.2658 67° East 79 91 3,000 240 Climbing Miami Center
06:29PM 27.5294 -80.2736 346° North 75 86 3,100 60 Climbing Miami Center
06:30PM 27.5628 -80.2794 351° North 109 125 3,200  Climbing Miami Center
06:31PM 27.5981 -80.2875 349° North 120 138 3,200 -60 Level Miami Center
06:32PM 27.6314 -80.2931 352° North 125 144 3,100 -120 Descending Miami Center
06:33PM 27.6647 -80.2964 355° North 125 144 3,000  Descending Miami Center
06:34PM 27.6936 -80.3019 350° North 125 144 3,200  Climbing Miami Center
06:35PM 27.7292 -80.3078 352° North 125 144 3,100 -60 Descending Miami Center
06:37PM 27.7833 -80.3167 352° North 129 148 3,100  Level Orlando TRACON
06:38PM 27.8167 -80.3167 360° North 127 146 3,200  Climbing Orlando TRACON
06:39PM 27.8500 -80.3333 336° Northwest 129 148 3,100 -60 Descending Orlando TRACON
06:40PM 27.9000 -80.3500 344° North 126 145 3,100  Level Orlando TRACON
06:41PM 27.9167 -80.3500 360° North 124 143 3,100  Level Orlando TRACON
06:42PM 27.9500 -80.3667 336° Northwest 115 132 3,100  Level Orlando TRACON
06:43PM 27.9667 -80.4000 300° West 119 137 3,100  Level Orlando TRACON
06:44PM 27.9833 -80.4333 300° West 117 135 3,100  Level Orlando TRACON
06:45PM 28.0000 -80.4667 300° West 116 133 3,100  Level Orlando TRACON
06:46PM 28.0333 -80.5000 319° Northwest 114 131 3,200  Climbing Orlando TRACON
06:47PM 28.0500 -80.5167 319° Northwest 116 133 3,100 -60 Descending Orlando TRACON
06:48PM 28.0667 -80.5667 291° West 122 140 3,100  Level Orlando TRACON
06:49PM 28.0833 -80.5833 319° Northwest 115 132 3,100  Level Orlando TRACON
06:50PM 28.1000 -80.6167 300° West 115 132 3,100  Level Orlando TRACON
06:51PM 28.1000 -80.6500 270° West 109 125 3,100 -60 Level Orlando TRACON
06:52PM 28.1000 -80.6833 270° West 113 130 3,000 -240 Descending Orlando TRACON
06:53PM 28.1000 -80.7167 270° West 106 122 2,700 -360 Descending Orlando TRACON
06:54PM 28.1000 -80.7500 270° West 114 131 2,300 -300 Descending Orlando TRACON
06:55PM 28.0833 -80.7833 240° Southwest 104 120 2,100 -60 Descending Orlando TRACON
06:56PM 28.0667 -80.8000 221° Southwest 114 131 2,200 -60 Climbing Orlando TRACON
06:57PM 28.0833 -80.7833 41° Northeast 88 101 2,000 -300 Descending Orlando TRACON
06:58PM 28.1000 -80.7500 60° Northeast 85 98 1,700 -300 Descending Orlando TRACON
06:59PM 28.1000 -80.7333 90° East 85 98 1,400 -480 Descending Orlando TRACON
07:00PM 28.1000 -80.7000 90° East 83 96 900 -420 Descending Orlando TRACON
07:01PM 28.1000 -80.6833 90° East 72 83 600 -300 Descending Orlando TRACON